Time;durP1;ratioP1;P1;durP2;ratioP2;P2;SDS_P1;SDS_P2;PMS_P1;PMS_P2;Temp;Humidity;BMP_temperature;BMP_pressure;BME280_temperature;BME280_humidity;BME280_pressure;Samples;Min_cycle;Max_cycle;Signal;HPM_P1;HPM_P2
2021/12/20 00:02:17;;;;;;;0.43;0.43;;;5.10;99.90;;;;;;5016024;28;20050;-88
2021/12/20 00:04:44;;;;;;;0.20;0.20;;;5.00;99.90;;;;;;5016436;28;20081;-86
2021/12/20 00:07:10;;;;;;;1.92;1.83;;;4.90;99.90;;;;;;4999511;28;20057;-87
2021/12/20 00:09:36;;;;;;;1.67;1.67;;;4.80;99.90;;;;;;4999729;28;20494;-86
2021/12/20 00:12:01;;;;;;;1.27;0.95;;;4.70;99.90;;;;;;5017163;28;20042;-87
2021/12/20 00:14:27;;;;;;;0.45;0.45;;;4.60;99.90;;;;;;5017114;28;20049;-87
2021/12/20 00:16:53;;;;;;;0.40;0.40;;;4.50;99.90;;;;;;5017143;28;20466;-87
2021/12/20 00:19:18;;;;;;;1.33;0.82;;;4.40;99.90;;;;;;4999685;28;20406;-80
2021/12/20 00:21:44;;;;;;;0.38;0.30;;;4.30;99.90;;;;;;5017007;28;20046;-81
2021/12/20 00:24:10;;;;;;;0.43;0.43;;;4.20;99.90;;;;;;5016654;28;20054;-85
2021/12/20 00:26:36;;;;;;;0.20;0.20;;;4.20;99.90;;;;;;5016586;28;20089;-85
2021/12/20 00:29:01;;;;;;;0.38;0.38;;;4.10;99.90;;;;;;5016589;28;20050;-85
2021/12/20 00:31:27;;;;;;;1.40;1.15;;;4.00;99.90;;;;;;4998468;28;20152;-85
2021/12/20 00:33:53;;;;;;;0.30;0.30;;;3.90;99.90;;;;;;5016234;28;20054;-83
2021/12/20 00:36:21;;;;;;;0.20;0.20;;;3.80;99.90;;;;;;4998118;28;20041;-85
2021/12/20 00:41:31;;;;;;;0.30;0.30;;;3.70;99.90;;;;;;4998357;28;20049;-84
2021/12/20 00:43:57;;;;;;;0.45;0.45;;;3.60;99.90;;;;;;5014511;28;20549;-83
2021/12/20 00:46:23;;;;;;;0.20;0.20;;;3.60;99.90;;;;;;5015343;28;20044;-80
2021/12/20 00:48:48;;;;;;;10.38;0.60;;;3.60;99.90;;;;;;4997022;28;20409;-83
2021/12/20 00:51:14;;;;;;;0.20;0.20;;;3.60;99.90;;;;;;5015517;28;20070;-83
2021/12/20 00:53:43;;;;;;;0.28;0.28;;;3.50;99.90;;;;;;5015658;28;20082;-84
2021/12/20 00:56:08;;;;;;;0.22;0.22;;;3.40;99.90;;;;;;4997940;28;20506;-83
2021/12/20 00:58:34;;;;;;;1.55;1.55;;;3.30;99.90;;;;;;5015543;28;20082;-83
2021/12/20 01:01:00;;;;;;;1.63;0.98;;;3.30;99.90;;;;;;5015805;28;20037;-83
2021/12/20 01:03:27;;;;;;;0.38;0.38;;;3.20;99.90;;;;;;5014125;28;20065;-84
2021/12/20 01:05:53;;;;;;;1.00;0.50;;;3.20;99.90;;;;;;5015549;28;20141;-83
2021/12/20 01:08:20;;;;;;;0.20;0.20;;;3.10;99.90;;;;;;4997476;28;20121;-83
2021/12/20 01:10:51;;;;;;;10.60;3.13;;;3.00;99.90;;;;;;4997790;28;20100;-83
2021/12/20 01:13:20;;;;;;;0.20;0.20;;;3.00;99.90;;;;;;5015056;28;20483;-83
2021/12/20 01:15:50;;;;;;;1.15;1.15;;;3.00;99.90;;;;;;5015232;28;20046;-83
2021/12/20 01:18:16;;;;;;;0.20;0.20;;;2.90;99.90;;;;;;4997366;28;20054;-83
2021/12/20 01:20:42;;;;;;;0.20;0.20;;;2.90;99.90;;;;;;5015094;28;20077;-79
2021/12/20 01:23:09;;;;;;;0.30;0.30;;;2.90;99.90;;;;;;5015160;28;20046;-83
2021/12/20 01:25:35;;;;;;;0.70;0.70;;;2.80;99.90;;;;;;5015164;28;20033;-83
2021/12/20 01:28:01;;;;;;;2.05;1.95;;;2.80;99.90;;;;;;5015072;28;20562;-83
2021/12/20 01:30:27;;;;;;;0.28;0.28;;;2.80;99.90;;;;;;4997066;28;20133;-82
2021/12/20 01:32:54;;;;;;;1.00;1.00;;;2.80;99.90;;;;;;5014858;28;20057;-83
2021/12/20 01:35:23;;;;;;;0.90;0.68;;;2.80;99.90;;;;;;5013677;28;20473;-83
2021/12/20 01:37:49;;;;;;;2.70;2.60;;;2.70;99.90;;;;;;4996739;28;20050;-84
2021/12/20 01:40:17;;;;;;;0.40;0.40;;;2.60;99.90;;;;;;5013301;28;20124;-83
2021/12/20 01:42:43;;;;;;;0.57;0.57;;;2.60;99.90;;;;;;5014847;28;20042;-82
2021/12/20 01:45:20;;;;;;;5.82;0.63;;;2.60;99.90;;;;;;5014717;28;20453;-82
2021/12/20 01:47:50;;;;;;;0.30;0.30;;;2.50;99.90;;;;;;5014533;28;20481;-78
2021/12/20 01:50:23;;;;;;;8.57;2.47;;;2.40;99.90;;;;;;5014671;28;20506;-83
2021/12/20 01:52:49;;;;;;;0.65;0.65;;;2.40;99.90;;;;;;5013508;28;20050;-87
2021/12/20 01:55:18;;;;;;;0.20;0.20;;;2.40;99.90;;;;;;5014863;28;20548;-85
2021/12/20 01:57:44;;;;;;;0.32;0.28;;;2.40;99.90;;;;;;5014612;28;20038;-83
2021/12/20 02:00:14;;;;;;;0.90;0.90;;;2.30;99.90;;;;;;4997026;28;20081;-83
2021/12/20 02:02:42;;;;;;;0.20;0.20;;;2.40;99.90;;;;;;4996821;28;20676;-84
2021/12/20 02:05:50;;;;;;;7.78;2.65;;;2.20;99.90;;;;;;5014534;28;20474;-80
2021/12/20 02:08:13;;;;;;;4.70;4.47;;;2.20;99.90;;;;;;4995469;28;20633;-79
2021/12/20 02:10:39;;;;;;;0.20;0.20;;;2.20;99.90;;;;;;4996406;28;20133;-81
2021/12/20 02:13:05;;;;;;;0.45;0.45;;;2.20;99.90;;;;;;5012497;28;20088;-80
2021/12/20 02:15:31;;;;;;;0.30;0.30;;;2.20;99.90;;;;;;4996428;28;20085;-80
2021/12/20 02:17:56;;;;;;;11.07;0.93;;;2.20;99.90;;;;;;5014137;28;20049;-80
2021/12/20 02:20:32;;;;;;;0.93;0.88;;;2.10;99.90;;;;;;5014068;28;20029;-80
2021/12/20 02:22:59;;;;;;;1.95;1.85;;;2.10;99.90;;;;;;5012983;28;20058;-80
2021/12/20 02:25:27;;;;;;;0.20;0.20;;;2.10;99.90;;;;;;5012436;28;20045;-81
2021/12/20 02:27:54;;;;;;;0.77;0.77;;;2.10;99.90;;;;;;5012750;28;20668;-79
2021/12/20 02:36:58;;;;;;;0.30;0.30;;;2.10;99.90;;;;;;5013726;28;20107;-80
2021/12/20 02:38:39;;;;;;;0.75;0.40;;;2.10;99.90;;;;;;5013543;28;20133;-80
2021/12/20 02:41:12;;;;;;;1.00;0.98;;;2.00;99.90;;;;;;5013104;28;20072;-80
2021/12/20 02:43:42;;;;;;;12.05;1.15;;;2.00;99.90;;;;;;5013360;28;20041;-80
2021/12/20 02:48:58;;;;;;;0.20;0.20;;;2.00;99.90;;;;;;4976388;28;20112;-80
2021/12/20 02:51:26;;;;;;;2.22;0.52;;;2.00;99.90;;;;;;4993835;28;20122;-79
2021/12/20 02:53:52;;;;;;;0.25;0.25;;;2.00;99.90;;;;;;4993773;28;20074;-79
2021/12/20 02:56:18;;;;;;;0.20;0.20;;;2.00;99.90;;;;;;4993600;28;20085;-79
2021/12/20 02:58:44;;;;;;;0.57;0.57;;;2.00;99.90;;;;;;4992329;28;20085;-80
2021/12/20 03:01:10;;;;;;;4.38;4.15;;;2.00;99.90;;;;;;4976359;28;20039;-80
2021/12/20 03:03:36;;;;;;;0.60;0.60;;;2.00;99.90;;;;;;4978140;28;20492;-80
2021/12/20 03:06:25;;;;;;;0.75;0.75;;;2.00;99.90;;;;;;4956746;28;20142;-80
2021/12/20 03:08:53;;;;;;;0.30;0.30;;;2.00;99.90;;;;;;4956653;28;20058;-80
2021/12/20 03:11:23;;;;;;;0.30;0.30;;;1.90;99.90;;;;;;4955945;28;20538;-81
2021/12/20 03:13:52;;;;;;;0.85;0.82;;;1.90;99.90;;;;;;4956433;28;20058;-80
2021/12/20 03:16:18;;;;;;;0.50;0.50;;;1.90;99.90;;;;;;4956709;28;20054;-81
2021/12/20 03:18:44;;;;;;;0.40;0.40;;;1.80;99.90;;;;;;4972839;28;20045;-83
2021/12/20 03:21:09;;;;;;;0.30;0.30;;;1.80;99.90;;;;;;4972586;28;20043;-81
2021/12/20 03:23:35;;;;;;;0.47;0.47;;;1.80;99.90;;;;;;4972572;28;20124;-80
2021/12/20 03:26:01;;;;;;;1.55;1.48;;;1.80;99.90;;;;;;4956445;28;20043;-81
2021/12/20 03:28:27;;;;;;;0.32;0.32;;;1.80;99.90;;;;;;4972338;28;20078;-80
2021/12/20 03:30:53;;;;;;;0.22;0.22;;;1.70;99.90;;;;;;4956431;28;20133;-80
2021/12/20 03:33:18;;;;;;;0.30;0.30;;;1.70;99.90;;;;;;4956255;28;20046;-80
2021/12/20 03:35:44;;;;;;;1.27;0.70;;;1.70;99.90;;;;;;4940911;28;20050;-81
2021/12/20 03:38:10;;;;;;;0.20;0.20;;;1.60;99.90;;;;;;5000208;28;20061;-79
2021/12/20 03:40:37;;;;;;;0.20;0.20;;;1.60;99.90;;;;;;4992735;28;20521;-82
2021/12/20 03:43:03;;;;;;;0.22;0.22;;;1.60;99.90;;;;;;4975819;28;20050;-80
2021/12/20 03:45:29;;;;;;;0.65;0.65;;;1.60;99.90;;;;;;4975678;28;20054;-80
2021/12/20 03:47:55;;;;;;;0.20;0.20;;;1.60;99.90;;;;;;4975784;28;20074;-80
2021/12/20 03:50:21;;;;;;;0.20;0.20;;;1.60;99.90;;;;;;4993170;28;20093;-81
2021/12/20 03:52:47;;;;;;;0.68;0.68;;;1.60;99.90;;;;;;4975713;28;20084;-81
2021/12/20 03:55:14;;;;;;;1.63;1.63;;;1.60;99.90;;;;;;4993445;28;20074;-81
2021/12/20 03:57:40;;;;;;;0.30;0.30;;;1.50;99.90;;;;;;4976062;28;20100;-80
2021/12/20 04:00:09;;;;;;;0.20;0.20;;;1.50;99.90;;;;;;4993408;28;20434;-81
2021/12/20 04:02:40;;;;;;;0.52;0.52;;;1.50;99.90;;;;;;4981330;28;20093;-80
2021/12/20 04:05:06;;;;;;;0.30;0.30;;;1.50;99.90;;;;;;5013135;28;20414;-80
2021/12/20 04:07:32;;;;;;;0.20;0.20;;;1.50;99.90;;;;;;5012857;28;20037;-80
2021/12/20 04:09:58;;;;;;;0.20;0.20;;;1.50;99.90;;;;;;4995114;28;20430;-81
2021/12/20 04:12:23;;;;;;;0.95;0.95;;;1.50;99.90;;;;;;5012902;28;20076;-81
2021/12/20 04:14:49;;;;;;;1.90;1.80;;;1.50;99.90;;;;;;5012952;28;20069;-81
2021/12/20 04:17:15;;;;;;;0.32;0.32;;;1.50;99.90;;;;;;5012792;28;20034;-81
2021/12/20 04:19:41;;;;;;;0.28;0.28;;;1.40;99.90;;;;;;4978812;28;20049;-81
2021/12/20 04:22:07;;;;;;;0.25;0.25;;;1.40;99.90;;;;;;4996831;28;20046;-81
2021/12/20 04:24:32;;;;;;;10.43;1.77;;;1.40;99.90;;;;;;4998842;28;20052;-81
2021/12/20 04:26:58;;;;;;;0.28;0.28;;;1.30;99.90;;;;;;4998603;28;20034;-81
2021/12/20 04:29:24;;;;;;;0.20;0.20;;;1.30;99.90;;;;;;5014829;28;20049;-81
2021/12/20 04:31:50;;;;;;;0.80;0.80;;;1.30;99.90;;;;;;4998362;28;20466;-81
2021/12/20 04:34:16;;;;;;;0.40;0.40;;;1.20;99.90;;;;;;4998501;28;20046;-82
2021/12/20 04:36:42;;;;;;;0.45;0.45;;;1.20;99.90;;;;;;5016162;28;20045;-80
2021/12/20 04:39:13;;;;;;;1.40;1.40;;;1.20;99.90;;;;;;5014934;28;20042;-81
2021/12/20 04:41:38;;;;;;;0.30;0.30;;;1.20;99.90;;;;;;4998516;28;20049;-81
2021/12/20 04:44:04;;;;;;;1.17;0.93;;;1.20;99.90;;;;;;5016053;28;20095;-81
2021/12/20 04:46:30;;;;;;;0.30;0.30;;;1.10;99.90;;;;;;5015847;28;20038;-81
2021/12/20 04:48:56;;;;;;;1.15;0.73;;;1.00;99.90;;;;;;5016049;28;20072;-81
2021/12/20 04:51:22;;;;;;;0.20;0.20;;;1.00;99.90;;;;;;5015975;28;20088;-81
2021/12/20 04:53:47;;;;;;;3.75;1.10;;;1.00;99.90;;;;;;5015487;28;20046;-81
2021/12/20 04:56:13;;;;;;;1.75;1.13;;;1.00;99.90;;;;;;5015538;28;20085;-81
2021/12/20 04:58:39;;;;;;;4.95;4.47;;;1.00;99.90;;;;;;5015856;28;20085;-81
2021/12/20 05:01:04;;;;;;;0.30;0.30;;;1.00;99.90;;;;;;4998334;28;20083;-80
2021/12/20 05:03:30;;;;;;;0.30;0.30;;;0.90;99.90;;;;;;5014366;28;20060;-81
2021/12/20 05:05:56;;;;;;;0.28;0.28;;;0.80;99.90;;;;;;5015374;28;20096;-78
2021/12/20 05:08:21;;;;;;;0.40;0.40;;;0.80;99.90;;;;;;4981671;28;20129;-81
2021/12/20 05:10:47;;;;;;;0.40;0.40;;;0.80;99.90;;;;;;5015585;28;20183;-81
2021/12/20 05:13:14;;;;;;;0.30;0.30;;;0.80;99.90;;;;;;5013885;28;20124;-80
2021/12/20 05:15:41;;;;;;;0.30;0.30;;;0.70;99.90;;;;;;5014173;28;20133;-81
2021/12/20 05:18:10;;;;;;;0.60;0.43;;;0.70;99.90;;;;;;5015369;28;20494;-81
2021/12/20 05:20:36;;;;;;;1.75;1.58;;;0.70;99.90;;;;;;4997643;28;20042;-81
2021/12/20 05:23:04;;;;;;;2.03;1.92;;;0.70;99.90;;;;;;5014111;28;20128;-80
2021/12/20 05:25:30;;;;;;;0.40;0.40;;;0.70;99.90;;;;;;4997862;28;20056;-81
2021/12/20 05:27:56;;;;;;;0.30;0.30;;;0.60;99.90;;;;;;4997741;28;20410;-81
2021/12/20 05:30:22;;;;;;;0.30;0.30;;;0.60;99.90;;;;;;5014868;28;20554;-80
2021/12/20 05:32:48;;;;;;;0.95;0.95;;;0.60;99.90;;;;;;5014646;28;20069;-81
2021/12/20 05:35:15;;;;;;;1.27;0.90;;;0.60;99.90;;;;;;5013381;28;20045;-80
2021/12/20 05:37:42;;;;;;;0.20;0.20;;;0.60;99.90;;;;;;5014861;28;20521;-80
2021/12/20 05:40:10;;;;;;;0.50;0.50;;;0.60;99.90;;;;;;5013844;28;20418;-81
2021/12/20 05:42:35;;;;;;;1.30;1.20;;;0.50;99.90;;;;;;4997241;28;20494;-80
2021/12/20 05:45:01;;;;;;;0.65;0.40;;;0.50;99.90;;;;;;5015197;28;20112;-80
2021/12/20 05:47:27;;;;;;;0.38;0.38;;;0.50;99.90;;;;;;5014876;28;20092;-80
2021/12/20 05:49:53;;;;;;;0.30;0.30;;;0.50;99.90;;;;;;4997040;28;20042;-80
2021/12/20 05:52:19;;;;;;;0.22;0.22;;;0.40;99.90;;;;;;5014749;28;20042;-81
2021/12/20 05:54:45;;;;;;;0.30;0.30;;;0.40;99.90;;;;;;5014405;28;20045;-80
2021/12/20 05:57:11;;;;;;;0.38;0.38;;;0.30;99.90;;;;;;5013279;28;20050;-79
2021/12/20 05:59:37;;;;;;;5.60;2.72;;;0.30;99.90;;;;;;5013259;28;20110;-80
2021/12/20 06:02:03;;;;;;;0.30;0.30;;;0.30;99.90;;;;;;5013135;28;20045;-80
2021/12/20 06:04:29;;;;;;;0.70;0.70;;;0.30;99.90;;;;;;4996846;28;20455;-81
2021/12/20 06:06:54;;;;;;;0.30;0.30;;;0.30;99.90;;;;;;5014525;28;20128;-82
2021/12/20 06:09:20;;;;;;;0.22;0.22;;;0.30;99.90;;;;;;5012977;28;20054;-81
2021/12/20 06:11:46;;;;;;;0.30;0.30;;;0.30;99.90;;;;;;5014446;28;20038;-80
2021/12/20 06:14:12;;;;;;;1.48;0.73;;;0.20;99.90;;;;;;5014414;28;20493;-81
2021/12/20 06:16:37;;;;;;;0.30;0.30;;;0.20;99.90;;;;;;5014376;28;20463;-82
2021/12/20 06:19:03;;;;;;;0.30;0.30;;;0.20;99.90;;;;;;5013359;28;20053;-81
2021/12/20 06:21:29;;;;;;;0.70;0.70;;;0.10;99.90;;;;;;4996609;28;20438;-81
2021/12/20 06:23:55;;;;;;;0.95;0.95;;;0.10;99.90;;;;;;5014316;28;20081;-80
2021/12/20 06:26:23;;;;;;;1.20;1.10;;;0.10;99.90;;;;;;5012930;28;20049;-81
2021/12/20 06:28:50;;;;;;;0.30;0.30;;;0.20;99.90;;;;;;5014175;28;20398;-79
2021/12/20 06:31:16;;;;;;;0.20;0.20;;;0.10;99.90;;;;;;5014041;28;20049;-81
2021/12/20 06:33:42;;;;;;;0.95;0.85;;;0.10;99.90;;;;;;5013607;28;20093;-81
2021/12/20 06:36:07;;;;;;;0.22;0.22;;;0.10;99.90;;;;;;5013983;28;20069;-82
2021/12/20 06:38:34;;;;;;;0.30;0.30;;;0.10;99.90;;;;;;5014164;28;20046;-80
2021/12/20 06:41:00;;;;;;;1.02;0.50;;;0.00;99.90;;;;;;4996281;28;20044;-81
2021/12/20 06:43:26;;;;;;;4.47;0.93;;;0.00;99.90;;;;;;5012408;28;20129;-81
2021/12/20 06:45:52;;;;;;;0.38;0.38;;;0.00;99.90;;;;;;5012251;28;20053;-81
2021/12/20 06:48:17;;;;;;;0.40;0.40;;;0.00;99.90;;;;;;5012348;28;20046;-81
2021/12/20 06:50:43;;;;;;;0.20;0.20;;;-0.10;99.90;;;;;;4995925;28;20129;-81
2021/12/20 06:53:09;;;;;;;0.30;0.30;;;-0.10;99.90;;;;;;5013631;28;20049;-81
2021/12/20 06:55:35;;;;;;;0.30;0.30;;;-0.10;99.90;;;;;;5013845;28;20167;-81
2021/12/20 06:58:02;;;;;;;0.85;0.85;;;-0.10;99.90;;;;;;4995924;28;20056;-81
2021/12/20 07:00:28;;;;;;;0.30;0.30;;;-0.10;99.90;;;;;;5013585;28;20046;-80
2021/12/20 07:02:54;;;;;;;0.40;0.40;;;-0.20;99.90;;;;;;4995896;28;20153;-80
2021/12/20 07:05:20;;;;;;;0.30;0.30;;;-0.20;99.90;;;;;;5012141;28;20472;-81
2021/12/20 07:07:46;;;;;;;30.00;1.85;;;-0.30;99.90;;;;;;5013513;28;20046;-81
2021/12/20 07:10:11;;;;;;;0.40;0.40;;;-0.40;99.90;;;;;;5012097;28;20074;-81
2021/12/20 07:12:38;;;;;;;1.05;1.05;;;-0.40;99.90;;;;;;5012058;28;20489;-81
2021/12/20 07:15:09;;;;;;;0.70;0.70;;;-0.40;99.90;;;;;;5013405;28;20092;-79
2021/12/20 07:17:35;;;;;;;0.38;0.38;;;-0.40;99.90;;;;;;5013469;28;20092;-81
2021/12/20 07:20:00;;;;;;;0.30;0.30;;;-0.40;99.90;;;;;;5013555;28;20054;-81
2021/12/20 07:22:26;;;;;;;2.05;0.57;;;-0.40;99.90;;;;;;5013389;28;20038;-82
2021/12/20 07:24:52;;;;;;;0.20;0.20;;;-0.40;99.90;;;;;;4995818;28;20042;-81
2021/12/20 07:27:19;;;;;;;0.75;0.75;;;-0.40;99.90;;;;;;5013343;28;20107;-81
2021/12/20 07:29:45;;;;;;;0.40;0.40;;;-0.50;99.90;;;;;;4995476;28;20498;-81
2021/12/20 07:32:11;;;;;;;0.65;0.65;;;-0.50;99.90;;;;;;5011964;28;20054;-80
2021/12/20 07:34:38;;;;;;;0.30;0.30;;;-0.60;99.90;;;;;;5011777;28;20438;-81
2021/12/20 07:37:05;;;;;;;1.13;1.13;;;-0.60;99.90;;;;;;5012890;28;20485;-75
2021/12/20 07:39:30;;;;;;;2.92;2.83;;;-0.60;99.90;;;;;;5028129;28;20650;-79
2021/12/20 07:41:56;;;;;;;0.30;0.30;;;-0.60;99.90;;;;;;5013158;28;20113;-80
2021/12/20 07:44:23;;;;;;;2.10;2.05;;;-0.60;99.90;;;;;;5011635;28;20054;-81
2021/12/20 07:46:49;;;;;;;1.95;1.85;;;-0.60;99.90;;;;;;5012935;28;20038;-81
2021/12/20 07:49:15;;;;;;;0.30;0.30;;;-0.60;99.90;;;;;;4995257;28;20041;-82
2021/12/20 07:51:41;;;;;;;0.45;0.40;;;-0.60;99.90;;;;;;5012661;28;20046;-81
2021/12/20 07:54:06;;;;;;;0.30;0.30;;;-0.70;99.90;;;;;;5012952;28;20038;-80
2021/12/20 07:56:32;;;;;;;2.63;2.45;;;-0.70;99.90;;;;;;5013759;28;20041;-80
2021/12/20 07:58:58;;;;;;;0.45;0.45;;;-0.70;99.90;;;;;;5016823;28;20380;-79
2021/12/20 08:01:23;;;;;;;0.43;0.43;;;-0.70;99.90;;;;;;5016565;28;20076;-79
2021/12/20 08:03:50;;;;;;;0.40;0.40;;;-0.70;99.90;;;;;;4998780;28;20086;-79
2021/12/20 08:06:16;;;;;;;5.68;0.88;;;-0.70;99.90;;;;;;5016616;28;20136;-80
2021/12/20 08:08:42;;;;;;;0.63;0.63;;;-0.70;99.90;;;;;;5014721;28;20176;-79
2021/12/20 08:11:08;;;;;;;0.30;0.30;;;-0.70;99.90;;;;;;4999127;28;20078;-82
2021/12/20 08:13:33;;;;;;;0.35;0.35;;;-0.70;99.90;;;;;;4998713;28;20605;-81
2021/12/20 08:15:59;;;;;;;0.25;0.25;;;-0.80;99.90;;;;;;5016665;28;20077;-81
2021/12/20 08:18:25;;;;;;;0.30;0.30;;;-0.70;99.90;;;;;;5016119;28;20041;-81
2021/12/20 08:20:51;;;;;;;0.30;0.30;;;-0.70;99.90;;;;;;5016367;28;20390;-80
2021/12/20 08:23:17;;;;;;;0.30;0.30;;;-0.70;99.90;;;;;;4998602;28;20041;-81
2021/12/20 08:25:43;;;;;;;1.90;1.80;;;-0.70;99.90;;;;;;5015935;28;20466;-81
2021/12/20 08:28:10;;;;;;;0.30;0.30;;;-0.70;99.90;;;;;;5015916;28;20046;-82
2021/12/20 08:30:36;;;;;;;1.75;0.68;;;-0.70;99.90;;;;;;5014936;28;20042;-81
2021/12/20 08:33:01;;;;;;;0.30;0.30;;;-0.60;99.90;;;;;;5014656;28;20092;-81
2021/12/20 08:35:27;;;;;;;0.20;0.20;;;-0.60;99.90;;;;;;5015926;28;20044;-82
2021/12/20 08:37:57;;;;;;;5.97;4.18;;;-0.60;99.90;;;;;;5016053;28;20498;-81
2021/12/20 08:40:23;;;;;;;3.08;2.88;;;-0.60;99.90;;;;;;5015724;28;20491;-81
2021/12/20 08:42:48;;;;;;;0.25;0.25;;;-0.60;99.90;;;;;;5015676;28;20177;-81
2021/12/20 08:45:16;;;;;;;0.55;0.52;;;-0.60;99.90;;;;;;5015837;28;20081;-81
2021/12/20 08:47:42;;;;;;;0.35;0.35;;;-0.60;99.90;;;;;;5015918;28;20034;-81
2021/12/20 08:50:11;;;;;;;0.30;0.30;;;-0.60;99.90;;;;;;5015854;28;20057;-80
2021/12/20 08:52:37;;;;;;;0.95;0.95;;;-0.50;99.90;;;;;;5015842;28;20038;-77
2021/12/20 08:55:04;;;;;;;0.85;0.85;;;-0.50;99.90;;;;;;4997937;28;20410;-82
2021/12/20 08:57:30;;;;;;;1.63;1.58;;;-0.50;99.90;;;;;;5014391;28;20045;-81
2021/12/20 08:59:56;;;;;;;3.58;3.30;;;-0.50;99.90;;;;;;4997863;28;20050;-81
2021/12/20 09:02:21;;;;;;;12.80;6.22;;;-0.50;99.90;;;;;;4981571;28;20054;-81
2021/12/20 09:04:47;;;;;;;3.67;3.47;;;-0.50;99.90;;;;;;4997909;28;20073;-82
2021/12/20 09:07:16;;;;;;;9.75;5.60;;;-0.40;99.90;;;;;;4997654;28;20042;-81
2021/12/20 09:09:45;;;;;;;1.17;1.17;;;-0.40;99.90;;;;;;5012894;28;20079;-82
2021/12/20 09:12:12;;;;;;;1.75;1.75;;;-0.40;99.90;;;;;;4997536;28;20045;-81
2021/12/20 09:14:38;;;;;;;0.30;0.30;;;-0.40;99.90;;;;;;4997546;28;20056;-81
2021/12/20 09:17:04;;;;;;;1.25;1.25;;;-0.40;99.90;;;;;;5014972;28;20124;-79
2021/12/20 09:19:30;;;;;;;1.05;1.05;;;-0.30;99.90;;;;;;4997783;28;20552;-81
2021/12/20 09:21:56;;;;;;;1.58;1.48;;;-0.40;99.90;;;;;;4997367;28;20077;-81
2021/12/20 09:24:22;;;;;;;1.00;1.00;;;-0.30;99.90;;;;;;4997410;28;20103;-81
2021/12/20 09:26:48;;;;;;;1.83;1.73;;;-0.30;99.90;;;;;;4997630;28;20494;-81
2021/12/20 09:29:14;;;;;;;1.33;1.23;;;-0.30;99.90;;;;;;4997175;28;20095;-80
2021/12/20 09:31:39;;;;;;;0.30;0.30;;;-0.20;99.90;;;;;;5015038;28;20037;-81
2021/12/20 09:34:05;;;;;;;4.75;3.15;;;-0.10;99.90;;;;;;5014967;28;20121;-81
2021/12/20 09:36:33;;;;;;;2.65;2.45;;;-0.20;99.90;;;;;;5014957;28;20045;-81
2021/12/20 09:39:00;;;;;;;8.95;0.65;;;-0.20;99.90;;;;;;5015471;28;20038;-81
2021/12/20 09:44:07;;;;;;;0.47;0.47;;;-0.10;99.90;;;;;;5014880;28;20053;-80
2021/12/20 09:46:33;;;;;;;0.68;0.68;;;-0.10;99.90;;;;;;5014714;28;20042;-81
2021/12/20 09:48:59;;;;;;;1.33;1.30;;;-0.10;99.90;;;;;;4996934;28;20052;-80
2021/12/20 09:51:26;;;;;;;0.45;0.45;;;-0.10;99.90;;;;;;5013172;28;20137;-80
2021/12/20 09:53:52;;;;;;;0.45;0.45;;;-0.10;99.90;;;;;;5014258;28;20052;-80
2021/12/20 09:56:19;;;;;;;1.38;1.27;;;0.00;99.90;;;;;;5014626;28;20426;-81
2021/12/20 09:58:47;;;;;;;4.07;3.22;;;0.00;99.90;;;;;;5013100;28;20498;-81
2021/12/20 10:01:13;;;;;;;0.30;0.30;;;0.00;99.90;;;;;;5014469;28;20048;-81
2021/12/20 10:03:42;;;;;;;2.90;1.40;;;0.00;99.90;;;;;;4996431;28;20107;-80
2021/12/20 10:06:08;;;;;;;0.95;0.95;;;0.00;99.90;;;;;;5014351;28;20081;-81
2021/12/20 10:08:35;;;;;;;0.50;0.50;;;0.10;99.90;;;;;;5013351;28;20081;-81
2021/12/20 10:11:16;;;;;;;8.73;7.88;;;0.10;99.90;;;;;;5014429;28;20441;-81
2021/12/20 10:13:42;;;;;;;2.00;1.80;;;0.10;99.90;;;;;;5014128;28;20076;-81
2021/12/20 10:16:22;;;;;;;1.13;1.13;;;0.10;99.90;;;;;;5014232;28;20129;-80
2021/12/20 10:18:49;;;;;;;2.05;1.67;;;0.10;99.90;;;;;;5012691;28;20052;-81
2021/12/20 10:21:16;;;;;;;1.20;1.20;;;0.10;99.90;;;;;;4996387;28;20045;-80
2021/12/20 10:23:48;;;;;;;0.70;0.70;;;0.10;99.90;;;;;;5012853;28;20099;-81
2021/12/20 10:26:16;;;;;;;8.23;1.83;;;0.20;99.90;;;;;;4996167;28;20061;-80
2021/12/20 10:28:43;;;;;;;0.63;0.63;;;0.20;99.90;;;;;;4996040;28;20047;-80
2021/12/20 10:31:15;;;;;;;0.43;0.43;;;0.30;99.90;;;;;;5012688;28;20048;-81
2021/12/20 10:33:49;;;;;;;;;;;0.30;99.90;;;;;;5014295;28;20054;-80
2021/12/20 10:36:15;;;;;;;0.75;0.75;;;0.40;99.90;;;;;;4996378;28;19929;-81
2021/12/20 10:38:43;;;;;;;1.13;1.13;;;0.40;99.90;;;;;;5012344;28;20045;-81
2021/12/20 10:41:16;;;;;;;2.03;1.92;;;0.50;99.90;;;;;;4995880;28;20046;-81
2021/12/20 10:43:49;;;;;;;2.10;1.67;;;0.50;99.90;;;;;;5013751;28;20135;-80
2021/12/20 10:46:19;;;;;;;0.88;0.88;;;0.50;99.90;;;;;;4996117;28;20042;-80
2021/12/20 10:48:48;;;;;;;0.70;0.70;;;0.60;99.90;;;;;;5013714;28;20050;-81
2021/12/20 10:51:32;;;;;;;8.98;1.00;;;0.60;99.90;;;;;;5012078;28;20483;-81
2021/12/20 10:54:02;;;;;;;0.45;0.45;;;0.70;99.90;;;;;;5012022;28;20054;-79
2021/12/20 10:56:30;;;;;;;0.35;0.35;;;0.70;99.90;;;;;;5012238;28;20483;-81
2021/12/20 10:58:57;;;;;;;0.60;0.60;;;0.80;99.90;;;;;;4995885;28;20613;-82
2021/12/20 11:04:21;;;;;;;0.55;0.55;;;1.00;99.90;;;;;;4995398;28;20375;-82
2021/12/20 11:09:04;;;;;;;0.40;0.40;;;1.10;99.90;;;;;;5011874;28;20095;-82
2021/12/20 11:09:59;;;;;;;0.82;0.75;;;1.20;99.90;;;;;;5011895;28;20053;-82
2021/12/20 11:12:33;;;;;;;0.50;0.50;;;1.20;99.90;;;;;;5011907;28;20050;-82
2021/12/20 11:15:09;;;;;;;0.77;0.77;;;1.20;99.90;;;;;;4995415;28;20099;-82
2021/12/20 11:17:39;;;;;;;0.90;0.90;;;1.30;99.90;;;;;;4995403;28;20080;-82
2021/12/20 11:20:05;;;;;;;0.47;0.47;;;1.30;99.90;;;;;;5012000;28;20402;-81
2021/12/20 11:22:33;;;;;;;0.25;0.25;;;1.40;99.90;;;;;;5013380;28;20049;-82
2021/12/20 11:25:11;;;;;;;0.30;0.30;;;1.50;99.90;;;;;;5013265;28;20068;-82
2021/12/20 11:27:52;;;;;;;3.20;1.85;;;1.60;99.90;;;;;;5013152;28;20104;-82
2021/12/20 11:30:22;;;;;;;5.55;1.77;;;1.60;99.90;;;;;;5013227;28;20384;-82
2021/12/20 11:32:49;;;;;;;1.95;1.85;;;1.70;99.90;;;;;;5012570;28;20073;-82
2021/12/20 11:35:18;;;;;;;3.67;2.90;;;1.70;99.90;;;;;;4995218;28;20056;-82
2021/12/20 11:37:44;;;;;;;1.88;1.77;;;1.70;99.90;;;;;;5012746;28;20062;-82
2021/12/20 11:40:12;;;;;;;0.90;0.90;;;1.80;99.90;;;;;;5013101;28;20038;-81
2021/12/20 11:42:38;;;;;;;2.25;1.17;;;1.80;99.90;;;;;;5012847;28;20046;-84
2021/12/20 11:45:07;;;;;;;0.40;0.40;;;1.80;99.90;;;;;;4995254;28;20053;-77
2021/12/20 11:47:57;;;;;;;3.20;2.88;;;1.90;99.90;;;;;;4995328;28;20046;-84
2021/12/20 11:50:34;;;;;;;1.58;0.65;;;1.90;99.90;;;;;;5011661;28;20105;-84
2021/12/20 11:53:08;;;;;;;0.38;0.38;;;1.90;99.90;;;;;;5011605;28;20053;-81
2021/12/20 11:55:35;;;;;;;5.43;1.17;;;2.00;99.90;;;;;;4995230;28;20049;-83
2021/12/20 11:58:02;;;;;;;10.50;2.40;;;1.90;99.90;;;;;;4995021;28;20042;-83
2021/12/20 12:00:30;;;;;;;3.80;1.40;;;2.00;99.90;;;;;;5011507;28;20053;-83
2021/12/20 12:03:00;;;;;;;1.55;0.40;;;2.00;99.90;;;;;;5011420;28;20108;-83
2021/12/20 12:05:33;;;;;;;9.98;1.23;;;2.00;99.90;;;;;;5011522;28;20054;-82
2021/12/20 12:08:23;;;;;;;1.85;1.75;;;2.00;99.90;;;;;;4995146;28;20053;-83
2021/12/20 12:10:51;;;;;;;1.10;1.10;;;2.00;99.90;;;;;;5011696;28;20065;-83
2021/12/20 12:13:18;;;;;;;4.13;2.40;;;2.00;99.90;;;;;;5011284;28;20054;-84
2021/12/20 12:16:02;;;;;;;1.05;1.05;;;2.00;99.90;;;;;;5012549;28;20046;-82
2021/12/20 12:18:46;;;;;;;0.57;0.57;;;2.10;99.90;;;;;;4995351;28;20049;-83
2021/12/20 12:21:39;;;;;;;1.75;0.90;;;2.10;99.90;;;;;;5012911;28;20053;-83
2021/12/20 12:24:07;;;;;;;1.02;0.73;;;2.10;99.90;;;;;;5011213;28;20049;-80
2021/12/20 12:26:38;;;;;;;2.70;2.47;;;2.20;99.90;;;;;;4995315;28;20121;-82
2021/12/20 12:29:06;;;;;;;0.43;0.43;;;2.20;99.90;;;;;;5011815;28;20046;-80
2021/12/20 12:31:52;;;;;;;9.43;1.65;;;2.20;99.90;;;;;;4995638;28;20053;-83
2021/12/20 12:34:18;;;;;;;3.90;0.73;;;2.30;99.90;;;;;;5012744;28;20096;-83
2021/12/20 12:36:45;;;;;;;0.32;0.32;;;2.30;99.90;;;;;;5012835;28;20041;-82
2021/12/20 12:39:18;;;;;;;0.40;0.40;;;2.30;99.90;;;;;;5011376;28;20133;-83
2021/12/20 12:41:55;;;;;;;0.73;0.73;;;2.30;99.90;;;;;;5012675;28;20129;-81
2021/12/20 12:44:28;;;;;;;0.40;0.40;;;2.40;99.90;;;;;;4998385;28;20049;-82
2021/12/20 12:47:12;;;;;;;0.40;0.40;;;2.40;99.90;;;;;;4998587;28;20045;-82
2021/12/20 12:49:53;;;;;;;2.35;2.17;;;2.40;99.90;;;;;;5015984;28;20446;-82
2021/12/20 12:52:22;;;;;;;0.38;0.38;;;2.50;99.90;;;;;;5015936;28;20038;-82
2021/12/20 12:55:04;;;;;;;0.95;0.95;;;2.50;99.90;;;;;;5014365;28;20056;-82
2021/12/20 12:57:31;;;;;;;0.75;0.75;;;2.50;99.90;;;;;;5014472;28;20041;-82
2021/12/20 13:00:03;;;;;;;1.55;1.52;;;2.50;99.90;;;;;;5015607;28;20509;-82
2021/12/20 13:02:29;;;;;;;1.70;1.58;;;2.50;99.90;;;;;;5014165;28;20144;-82
2021/12/20 13:05:05;;;;;;;2.83;2.65;;;2.50;99.90;;;;;;5015773;28;20125;-82
2021/12/20 13:07:50;;;;;;;0.70;0.70;;;2.50;99.90;;;;;;4998025;28;20060;-83
2021/12/20 13:10:38;;;;;;;1.55;0.65;;;2.50;99.90;;;;;;5015414;28;20401;-82
2021/12/20 13:13:10;;;;;;;0.20;0.20;;;2.50;99.90;;;;;;5014266;28;20512;-82
2021/12/20 13:18:10;;;;;;;1.63;1.63;;;2.50;99.90;;;;;;4998037;28;20053;-82
2021/12/20 13:20:58;;;;;;;0.20;0.20;;;2.50;99.90;;;;;;5015631;28;20049;-82